createdAt,value
2022-12-14T00:01:45.093Z,56.85
2022-12-14T00:04:16.439Z,56.90
2022-12-14T00:06:43.712Z,57.05
2022-12-14T00:09:11.273Z,56.75
2022-12-14T00:11:38.915Z,56.54
2022-12-14T00:14:07.007Z,56.40
2022-12-14T00:16:35.287Z,56.11
2022-12-14T00:19:03.200Z,56.41
2022-12-14T00:21:30.426Z,57.27
2022-12-14T00:23:59.404Z,56.77
2022-12-14T00:26:30.123Z,57.35
2022-12-14T00:29:00.386Z,57.37
2022-12-14T00:31:28.200Z,56.79
2022-12-14T00:33:55.652Z,56.77
2022-12-14T00:36:23.404Z,56.47
2022-12-14T00:38:51.876Z,56.44
2022-12-14T00:41:19.391Z,56.36
2022-12-14T00:43:49.300Z,56.41
2022-12-14T00:46:18.175Z,55.91
2022-12-14T00:48:45.773Z,56.61
2022-12-14T00:51:15.071Z,56.92
2022-12-14T00:53:44.278Z,56.65
2022-12-14T00:56:11.834Z,56.92
2022-12-14T00:58:39.134Z,56.80
2022-12-14T01:01:09.771Z,56.69
2022-12-14T01:03:37.115Z,55.89
2022-12-14T01:06:04.521Z,55.89
2022-12-14T01:08:35.948Z,55.91
2022-12-14T01:11:05.763Z,55.90
2022-12-14T01:13:33.776Z,55.81
2022-12-14T01:16:06.783Z,56.55
2022-12-14T01:18:35.856Z,56.28
2022-12-14T01:21:09.535Z,56.05
2022-12-14T01:23:37.586Z,55.92
2022-12-14T01:26:04.864Z,56.89
2022-12-14T01:28:32.249Z,57.01
2022-12-14T01:30:59.542Z,56.38
2022-12-14T01:33:27.008Z,56.16
2022-12-14T01:35:55.496Z,55.92
2022-12-14T01:38:22.934Z,57.37
2022-12-14T01:40:50.216Z,57.77
2022-12-14T01:43:17.469Z,57.73
2022-12-14T01:45:44.672Z,57.50
2022-12-14T01:48:13.440Z,57.26
2022-12-14T01:50:43.692Z,58.14
2022-12-14T01:53:15.916Z,58.32
2022-12-14T01:55:48.808Z,57.96
2022-12-14T01:58:24.006Z,59.88
2022-12-14T02:00:56.334Z,62.71
2022-12-14T02:03:26.643Z,64.30
2022-12-14T02:05:58.200Z,66.17
2022-12-14T02:08:27.292Z,67.43
2022-12-14T02:10:55.770Z,68.72
2022-12-14T02:13:27.268Z,68.90
2022-12-14T02:15:54.919Z,69.26
2022-12-14T02:18:24.554Z,69.52
2022-12-14T02:21:01.485Z,69.01
2022-12-14T02:23:42.909Z,68.70
2022-12-14T02:26:31.163Z,69.13
2022-12-14T02:29:16.890Z,68.39
2022-12-14T02:31:47.038Z,68.64
2022-12-14T02:34:51.711Z,69.82
2022-12-14T02:37:24.936Z,69.95
2022-12-14T02:40:14.471Z,70.56
2022-12-14T02:42:56.632Z,71.35
2022-12-14T02:45:42.481Z,71.11
2022-12-14T02:48:16.758Z,70.68
2022-12-14T02:50:51.772Z,72.31
2022-12-14T02:53:26.699Z,71.59
2022-12-14T02:55:54.942Z,72.16
2022-12-14T02:58:41.445Z,72.97
2022-12-14T03:01:12.728Z,73.18
2022-12-14T03:03:40.974Z,73.63
2022-12-14T03:06:26.225Z,73.84
2022-12-14T03:09:16.858Z,73.40
2022-12-14T03:12:07.612Z,73.03
2022-12-14T03:14:40.013Z,73.64
2022-12-14T03:17:19.276Z,74.41
2022-12-14T03:20:07.142Z,74.13
2022-12-14T03:22:49.535Z,74.80
2022-12-14T03:25:22.442Z,74.93
2022-12-14T03:27:53.704Z,74.80
2022-12-14T03:30:43.841Z,74.65
2022-12-14T03:33:13.790Z,74.40
2022-12-14T03:35:50.693Z,74.03
2022-12-14T03:38:21.426Z,73.93
2022-12-14T03:40:53.504Z,73.92
2022-12-14T03:43:42.926Z,73.03
2022-12-14T03:46:41.832Z,74.26
2022-12-14T03:49:17.303Z,74.40
2022-12-14T03:52:00.384Z,73.65
2022-12-14T03:54:33.793Z,73.00
2022-12-14T03:57:15.049Z,73.87
2022-12-14T03:59:54.246Z,73.83
2022-12-14T04:02:36.311Z,72.40
2022-12-14T04:05:12.541Z,72.44
2022-12-14T04:07:46.109Z,72.58
2022-12-14T04:10:39.248Z,73.19
2022-12-14T04:13:29.065Z,73.83
2022-12-14T04:16:18.782Z,74.34
2022-12-14T04:19:00.314Z,74.92
2022-12-14T04:21:38.237Z,74.53
2022-12-14T04:24:37.703Z,74.46
2022-12-14T04:27:30.147Z,75.14
2022-12-14T04:30:00.421Z,74.98
2022-12-14T04:32:53.004Z,75.57
2022-12-14T04:35:39.963Z,75.94
2022-12-14T04:38:11.431Z,75.16
2022-12-14T04:40:44.209Z,74.59
2022-12-14T04:43:15.512Z,74.75
2022-12-14T04:45:53.973Z,75.45
2022-12-14T04:48:52.240Z,75.80
2022-12-14T04:51:50.960Z,75.71
2022-12-14T04:54:39.960Z,76.44
2022-12-14T04:57:18.977Z,76.32
2022-12-14T04:59:47.655Z,77.85
2022-12-14T05:02:52.682Z,78.08
2022-12-14T05:05:27.400Z,77.81
2022-12-14T05:08:10.349Z,77.39
2022-12-14T05:11:39.457Z,76.85
2022-12-14T05:13:55.218Z,76.31
2022-12-14T05:16:23.462Z,76.17
2022-12-14T05:18:51.117Z,76.28
2022-12-14T05:21:36.889Z,77.76
2022-12-14T05:24:04.444Z,77.72
2022-12-14T05:26:32.040Z,76.51
2022-12-14T05:28:59.355Z,76.93
2022-12-14T05:31:27.023Z,76.24
2022-12-14T05:33:54.304Z,75.76
2022-12-14T05:36:21.931Z,75.08
2022-12-14T05:38:49.241Z,74.48
2022-12-14T05:41:16.443Z,74.31
2022-12-14T05:43:43.732Z,74.50
2022-12-14T05:46:12.104Z,75.51
2022-12-14T05:48:39.643Z,75.26
2022-12-14T05:51:08.842Z,76.06
2022-12-14T05:53:36.615Z,76.39
2022-12-14T05:56:05.760Z,76.33
2022-12-14T05:58:34.787Z,77.08
2022-12-14T06:01:09.149Z,77.99
2022-12-14T06:03:38.900Z,77.20
2022-12-14T06:06:09.445Z,77.38
2022-12-14T06:08:39.518Z,76.10
2022-12-14T06:11:11.970Z,77.17
2022-12-14T06:13:40.037Z,76.97
2022-12-14T06:16:26.592Z,76.82
2022-12-14T06:18:58.826Z,75.73
2022-12-14T06:21:29.140Z,76.03
2022-12-14T06:23:56.975Z,75.67
2022-12-14T06:26:25.276Z,76.12
2022-12-14T06:28:52.943Z,76.05
2022-12-14T06:31:22.603Z,77.02
2022-12-14T06:33:50.453Z,76.69
2022-12-14T06:36:24.054Z,77.07
2022-12-14T06:38:51.929Z,77.20
2022-12-14T06:41:20.308Z,76.81
2022-12-14T06:43:53.278Z,78.04
2022-12-14T06:46:24.706Z,78.46
2022-12-14T06:48:53.522Z,77.87
2022-12-14T06:51:22.716Z,77.42
2022-12-14T06:53:51.911Z,77.84
2022-12-14T06:56:20.398Z,77.02
2022-12-14T06:58:48.232Z,78.01
2022-12-14T07:01:21.221Z,78.58
2022-12-14T07:03:50.956Z,78.71
2022-12-14T07:06:18.194Z,77.92
2022-12-14T07:08:45.937Z,77.93
2022-12-14T07:11:15.260Z,78.29
2022-12-14T07:13:42.771Z,78.35
2022-12-14T07:16:16.390Z,78.20
2022-12-14T07:18:44.035Z,78.12
2022-12-14T07:21:13.733Z,77.76
2022-12-14T07:23:42.527Z,77.86
2022-12-14T07:26:13.272Z,78.32
2022-12-14T07:28:41.185Z,78.59
2022-12-14T07:31:12.339Z,79.65
2022-12-14T07:33:39.687Z,81.25
2022-12-14T07:36:26.220Z,81.90
2022-12-14T07:38:55.652Z,79.62
2022-12-14T07:41:25.746Z,80.05
2022-12-14T07:43:54.565Z,80.60
2022-12-14T07:46:24.213Z,78.83
2022-12-14T07:48:56.810Z,80.56
2022-12-14T07:51:26.542Z,80.13
2022-12-14T07:53:54.720Z,80.86
2022-12-14T07:56:25.099Z,82.01
2022-12-14T07:58:54.183Z,79.59
2022-12-14T08:01:23.702Z,80.23
2022-12-14T08:03:52.280Z,80.51
2022-12-14T08:06:20.916Z,80.91
2022-12-14T08:08:49.288Z,81.32
2022-12-14T08:11:16.867Z,81.08
2022-12-14T08:13:44.325Z,82.47
2022-12-14T08:16:14.105Z,82.33
2022-12-14T08:18:42.421Z,82.07
2022-12-14T08:21:11.011Z,81.87
2022-12-14T08:23:39.051Z,81.16
2022-12-14T08:26:06.538Z,80.60
2022-12-14T08:28:35.411Z,80.35
2022-12-14T08:31:08.479Z,80.60
2022-12-14T08:33:36.954Z,81.40
2022-12-14T08:36:27.869Z,80.51
2022-12-14T08:38:56.791Z,79.60
2022-12-14T08:41:25.141Z,79.48
2022-12-14T08:43:57.220Z,79.55
2022-12-14T08:46:25.998Z,78.94
2022-12-14T08:48:55.073Z,77.59
2022-12-14T08:51:23.574Z,77.69
2022-12-14T08:53:51.664Z,78.29
2022-12-14T08:56:21.455Z,78.96
2022-12-14T08:58:49.218Z,78.50
2022-12-14T09:01:34.049Z,77.32
2022-12-14T09:04:04.935Z,77.09
2022-12-14T09:06:35.015Z,76.58
2022-12-14T09:09:02.191Z,75.74
2022-12-14T09:11:29.336Z,75.48
2022-12-14T09:13:56.848Z,74.23
2022-12-14T09:16:28.612Z,73.67
2022-12-14T09:18:56.075Z,73.13
2022-12-14T09:21:24.059Z,73.19
2022-12-14T09:23:57.278Z,73.54
2022-12-14T09:26:26.597Z,73.33
2022-12-14T09:28:56.360Z,73.46
2022-12-14T09:31:26.216Z,74.50
2022-12-14T09:33:54.850Z,74.33
2022-12-14T09:36:27.690Z,73.31
2022-12-14T09:38:56.677Z,73.76
2022-12-14T09:41:33.005Z,72.94
2022-12-14T09:44:17.920Z,72.41
2022-12-14T09:46:54.896Z,72.21
2022-12-14T09:49:25.692Z,72.56
2022-12-14T09:51:57.395Z,72.43
2022-12-14T09:54:31.005Z,69.68
2022-12-14T09:57:01.761Z,70.27
2022-12-14T09:59:31.868Z,70.78
2022-12-14T10:02:32.364Z,70.99
2022-12-14T10:05:25.058Z,69.62
2022-12-14T10:08:18.377Z,69.20
2022-12-14T10:10:51.564Z,68.87
2022-12-14T10:13:29.394Z,68.57
2022-12-14T10:16:27.200Z,69.19
2022-12-14T10:19:17.326Z,68.69
2022-12-14T10:21:51.658Z,68.93
2022-12-14T10:24:42.897Z,69.73
2022-12-14T10:27:11.376Z,69.04
2022-12-14T10:29:47.955Z,70.07
2022-12-14T10:32:25.753Z,68.75
2022-12-14T10:34:53.289Z,67.38
2022-12-14T10:37:27.713Z,66.99
2022-12-14T10:40:17.581Z,66.62
2022-12-14T10:42:49.790Z,65.90
2022-12-14T10:45:41.450Z,66.33
2022-12-14T10:48:46.595Z,66.67
2022-12-14T10:51:22.195Z,66.81
2022-12-14T10:54:00.299Z,67.75
2022-12-14T10:56:33.532Z,67.54
2022-12-14T10:59:22.098Z,65.89
2022-12-14T11:02:04.117Z,65.26
2022-12-14T11:04:34.682Z,64.94
2022-12-14T11:07:10.291Z,65.03
2022-12-14T11:09:39.161Z,64.66
2022-12-14T11:12:32.797Z,64.48
2022-12-14T11:15:03.103Z,64.42
2022-12-14T11:17:39.797Z,64.89
2022-12-14T11:20:22.407Z,65.49
2022-12-14T11:22:51.450Z,65.13
2022-12-14T11:25:37.653Z,65.61
2022-12-14T11:28:37.804Z,65.25
2022-12-14T11:31:13.742Z,65.11
2022-12-14T11:33:45.734Z,65.52
2022-12-14T11:36:27.009Z,64.95
2022-12-14T11:38:59.476Z,64.50
2022-12-14T11:41:34.011Z,64.57
2022-12-14T11:44:07.060Z,64.21
2022-12-14T11:46:44.913Z,64.02
2022-12-14T11:49:28.722Z,64.09
2022-12-14T11:51:55.911Z,64.93
2022-12-14T11:54:23.300Z,66.16
2022-12-14T11:56:51.233Z,66.26
2022-12-14T11:59:19.344Z,66.25
2022-12-14T12:01:46.922Z,65.15
2022-12-14T12:04:15.752Z,63.97
2022-12-14T12:06:43.193Z,63.09
2022-12-14T12:09:28.057Z,63.64
2022-12-14T12:11:55.354Z,62.78
2022-12-14T12:14:29.874Z,62.67
2022-12-14T12:16:57.827Z,62.06
2022-12-14T12:19:30.637Z,61.31
2022-12-14T12:22:01.077Z,60.52
2022-12-14T12:25:08.371Z,59.90
2022-12-14T12:27:33.070Z,59.09
2022-12-14T12:30:07.468Z,60.82
2022-12-14T12:32:44.043Z,60.41
2022-12-14T12:35:50.111Z,59.76
2022-12-14T12:38:23.223Z,59.66
2022-12-14T12:40:56.323Z,59.03
2022-12-14T12:43:32.218Z,59.94
2022-12-14T12:46:02.795Z,61.40
2022-12-14T12:48:39.801Z,61.25
2022-12-14T12:51:17.182Z,61.05
2022-12-14T12:53:46.086Z,60.72
2022-12-14T12:56:16.940Z,61.31
2022-12-14T12:58:50.623Z,61.23
2022-12-14T13:01:47.922Z,60.55
2022-12-14T13:04:37.461Z,60.17
2022-12-14T13:07:23.007Z,59.39
2022-12-14T13:09:55.178Z,59.21
2022-12-14T13:12:44.019Z,60.46
2022-12-14T13:15:37.699Z,61.19
2022-12-14T13:18:49.363Z,60.67
2022-12-14T13:21:28.477Z,61.07
2022-12-14T13:23:55.996Z,60.47
2022-12-14T13:26:57.872Z,60.23
2022-12-14T13:29:43.636Z,59.35
2022-12-14T13:32:33.835Z,59.54
2022-12-14T13:35:29.239Z,60.45
2022-12-14T13:38:08.638Z,60.26
2022-12-14T13:40:38.964Z,60.44
2022-12-14T13:43:29.667Z,59.27
2022-12-14T13:46:04.703Z,59.29
2022-12-14T13:48:37.334Z,60.09
2022-12-14T13:51:06.577Z,60.09
2022-12-14T13:53:58.838Z,59.81
2022-12-14T13:56:33.596Z,59.51
2022-12-14T13:59:04.111Z,59.49
2022-12-14T14:01:40.620Z,58.52
2022-12-14T14:04:11.043Z,59.09
2022-12-14T14:06:40.802Z,58.87
2022-12-14T14:09:26.474Z,57.78
2022-12-14T14:12:19.551Z,58.13
2022-12-14T14:14:58.021Z,58.87
2022-12-14T14:17:37.354Z,58.84
2022-12-14T14:20:33.799Z,59.71
2022-12-14T14:23:16.731Z,59.26
2022-12-14T14:25:50.177Z,60.03
2022-12-14T14:28:22.998Z,59.52
2022-12-14T14:30:59.859Z,60.25
2022-12-14T14:33:46.062Z,60.26
2022-12-14T14:36:41.123Z,60.22
2022-12-14T14:39:55.447Z,59.78
2022-12-14T14:42:21.892Z,58.67
2022-12-14T14:44:55.018Z,59.66
2022-12-14T14:47:28.619Z,60.16
2022-12-14T14:50:02.322Z,60.94
2022-12-14T14:52:41.744Z,60.28
2022-12-14T14:55:52.066Z,59.98
2022-12-14T14:58:35.840Z,59.84
2022-12-14T15:01:06.445Z,60.80
2022-12-14T15:03:53.463Z,60.17
2022-12-14T15:06:27.757Z,60.31
2022-12-14T15:09:10.998Z,59.51
2022-12-14T15:11:53.315Z,59.29
2022-12-14T15:14:53.370Z,60.90
2022-12-14T15:17:23.461Z,60.87
2022-12-14T15:19:53.465Z,61.07
2022-12-14T15:22:23.809Z,61.15
2022-12-14T15:24:53.682Z,60.81
2022-12-14T15:27:27.598Z,60.18
2022-12-14T15:30:14.471Z,59.87
2022-12-14T15:32:47.613Z,59.40
2022-12-14T15:35:23.457Z,59.21
2022-12-14T15:37:58.008Z,59.18
2022-12-14T15:40:30.229Z,59.80
2022-12-14T15:43:00.002Z,59.91
2022-12-14T15:45:34.842Z,59.71
2022-12-14T15:48:15.247Z,59.16
2022-12-14T15:50:46.189Z,58.53
2022-12-14T15:53:18.049Z,57.35
2022-12-14T15:55:50.018Z,56.87
2022-12-14T15:58:32.570Z,56.69
2022-12-14T16:01:17.779Z,56.58
2022-12-14T16:03:48.546Z,56.83
2022-12-14T16:06:17.404Z,56.25
2022-12-14T16:08:50.385Z,55.70
2022-12-14T16:11:24.959Z,55.96
2022-12-14T16:13:52.527Z,56.60
2022-12-14T16:16:19.926Z,56.30
2022-12-14T16:18:51.297Z,56.67
2022-12-14T16:21:37.113Z,56.72
2022-12-14T16:24:23.408Z,56.51
2022-12-14T16:26:59.121Z,56.38
2022-12-14T16:29:31.594Z,56.19
2022-12-14T16:32:07.128Z,55.88
2022-12-14T16:34:34.463Z,55.34
2022-12-14T16:39:52.529Z,55.99
2022-12-14T16:42:22.632Z,56.83
2022-12-14T16:44:53.796Z,56.15
2022-12-14T16:47:21.491Z,55.34
2022-12-14T16:50:00.336Z,55.50
2022-12-14T16:55:26.369Z,56.98
2022-12-14T16:57:56.104Z,56.84
2022-12-14T17:00:23.336Z,57.53
2022-12-14T17:03:18.679Z,57.03
2022-12-14T17:05:52.327Z,57.05
2022-12-14T17:08:19.722Z,57.30
2022-12-14T17:10:47.178Z,56.47
2022-12-14T17:13:14.485Z,56.92
2022-12-14T17:16:05.842Z,57.86
2022-12-14T17:18:37.739Z,57.23
2022-12-14T17:21:05.792Z,57.69
2022-12-14T17:23:35.375Z,57.70
2022-12-14T17:26:02.685Z,57.37
2022-12-14T17:28:31.481Z,56.26
2022-12-14T17:31:01.653Z,56.37
2022-12-14T17:33:30.187Z,56.18
2022-12-14T17:35:57.793Z,56.76
2022-12-14T17:38:25.109Z,57.82
2022-12-14T17:40:53.827Z,57.47
2022-12-14T17:43:25.102Z,58.06
2022-12-14T17:45:53.117Z,57.61
2022-12-14T17:48:20.970Z,59.17
2022-12-14T17:50:49.933Z,59.27
2022-12-14T17:53:21.720Z,60.19
2022-12-14T17:55:48.913Z,59.47
2022-12-14T17:58:16.886Z,59.90
2022-12-14T18:01:03.453Z,60.49
2022-12-14T18:03:33.163Z,60.44
2022-12-14T18:06:02.267Z,59.80
2022-12-14T18:08:29.626Z,60.34
2022-12-14T18:11:00.008Z,59.72
2022-12-14T18:13:28.678Z,58.94
2022-12-14T18:15:56.479Z,58.40
2022-12-14T18:18:27.523Z,58.90
2022-12-14T18:21:00.470Z,59.07
2022-12-14T18:23:29.845Z,58.90
2022-12-14T18:25:59.117Z,59.60
2022-12-14T18:28:26.594Z,59.44
2022-12-14T18:30:57.297Z,59.31
2022-12-14T18:33:27.644Z,58.57
2022-12-14T18:35:56.499Z,59.03
2022-12-14T18:38:24.637Z,59.29
2022-12-14T18:40:53.837Z,58.37
2022-12-14T18:43:23.951Z,58.49
2022-12-14T18:45:53.102Z,58.04
2022-12-14T18:48:21.466Z,57.34
2022-12-14T18:50:49.526Z,56.96
2022-12-14T18:53:19.834Z,57.05
2022-12-14T18:55:48.093Z,58.20
2022-12-14T18:58:24.121Z,58.11
2022-12-14T19:00:54.610Z,57.96
2022-12-14T19:03:23.096Z,57.67
2022-12-14T19:05:50.541Z,57.54
2022-12-14T19:08:17.984Z,57.25
2022-12-14T19:10:48.058Z,56.84
2022-12-14T19:13:21.644Z,56.59
2022-12-14T19:15:52.329Z,56.92
2022-12-14T19:18:19.636Z,56.50
2022-12-14T19:20:49.519Z,57.19
2022-12-14T19:23:19.344Z,56.69
2022-12-14T19:25:47.195Z,57.54
2022-12-14T19:28:31.462Z,58.21
2022-12-14T19:31:01.172Z,57.63
2022-12-14T19:33:29.850Z,57.08
2022-12-14T19:35:57.664Z,56.61
2022-12-14T19:38:24.966Z,57.11
2022-12-14T19:41:01.094Z,56.45
2022-12-14T19:43:29.838Z,55.83
2022-12-14T19:45:57.513Z,55.29
2022-12-14T19:48:24.759Z,55.80
2022-12-14T19:50:52.168Z,55.82
2022-12-14T19:53:23.771Z,55.60
2022-12-14T19:55:52.592Z,55.44
2022-12-14T19:58:22.037Z,54.75
2022-12-14T20:00:50.594Z,54.67
2022-12-14T20:03:18.348Z,54.76
2022-12-14T20:05:53.605Z,55.85
2022-12-14T20:08:21.482Z,56.86
2022-12-14T20:10:49.264Z,56.28
2022-12-14T20:13:16.501Z,56.25
2022-12-14T20:15:58.357Z,56.93
2022-12-14T20:18:26.460Z,56.94
2022-12-14T20:20:53.833Z,56.39
2022-12-14T20:23:22.041Z,55.07
2022-12-14T20:25:49.334Z,54.86
2022-12-14T20:28:16.691Z,55.61
2022-12-14T20:30:45.279Z,55.36
2022-12-14T20:33:13.108Z,54.86
2022-12-14T20:35:40.349Z,54.12
2022-12-14T20:38:07.879Z,54.31
2022-12-14T20:40:38.808Z,53.79
2022-12-14T20:43:07.276Z,54.98
2022-12-14T20:45:43.945Z,55.11
2022-12-14T20:48:11.387Z,55.79
2022-12-14T20:50:40.364Z,56.19
2022-12-14T20:53:07.939Z,57.15
2022-12-14T20:55:35.637Z,58.58
2022-12-14T20:58:02.901Z,58.85
2022-12-14T21:00:30.453Z,58.31
2022-12-14T21:02:58.070Z,57.27
2022-12-14T21:05:25.586Z,57.14
2022-12-14T21:07:53.018Z,56.79
2022-12-14T21:10:20.288Z,56.74
2022-12-14T21:12:48.640Z,56.79
2022-12-14T21:15:16.114Z,56.35
2022-12-14T21:17:46.327Z,56.04
2022-12-14T21:20:13.682Z,55.54
2022-12-14T21:22:41.023Z,55.50
2022-12-14T21:25:08.505Z,55.64
2022-12-14T21:27:40.770Z,56.12
2022-12-14T21:30:10.175Z,56.38
2022-12-14T21:32:38.422Z,56.84
2022-12-14T21:35:06.294Z,55.88
2022-12-14T21:37:33.701Z,55.97
2022-12-14T21:40:03.649Z,56.58
2022-12-14T21:42:30.835Z,56.25
2022-12-14T21:44:57.981Z,55.95
2022-12-14T21:47:27.261Z,56.14
2022-12-14T21:49:54.923Z,56.77
2022-12-14T21:52:24.992Z,56.21
2022-12-14T21:54:52.233Z,56.66
2022-12-14T21:57:40.643Z,56.48
2022-12-14T22:00:09.770Z,55.46
2022-12-14T22:02:39.898Z,55.50
2022-12-14T22:05:07.639Z,56.08
2022-12-14T22:07:35.070Z,56.38
2022-12-14T22:10:02.505Z,55.91
2022-12-14T22:12:29.804Z,55.37
2022-12-14T22:14:57.190Z,55.79
2022-12-14T22:17:24.425Z,55.96
2022-12-14T22:19:54.234Z,55.43
2022-12-14T22:22:21.534Z,56.00
2022-12-14T22:24:49.888Z,56.32
2022-12-14T22:27:17.734Z,56.25
2022-12-14T22:29:45.037Z,56.46
2022-12-14T22:32:12.950Z,57.02
2022-12-14T22:34:40.763Z,56.91
2022-12-14T22:37:08.444Z,57.24
2022-12-14T22:39:36.007Z,57.37
2022-12-14T22:42:03.353Z,57.46
2022-12-14T22:44:30.824Z,57.38
2022-12-14T22:46:58.314Z,58.03
2022-12-14T22:49:25.652Z,58.28
2022-12-14T22:51:53.071Z,58.50
2022-12-14T22:54:25.448Z,58.36
2022-12-14T22:57:04.921Z,58.74
2022-12-14T22:59:45.502Z,58.75
2022-12-14T23:02:13.086Z,58.46
2022-12-14T23:04:40.595Z,58.84
2022-12-14T23:07:08.020Z,58.38
2022-12-14T23:09:53.873Z,58.95
2022-12-14T23:12:39.783Z,58.62
2022-12-14T23:15:25.622Z,58.29
2022-12-14T23:18:20.099Z,58.83
2022-12-14T23:21:06.094Z,58.18
2022-12-14T23:23:51.851Z,58.72
2022-12-14T23:26:37.642Z,59.07
2022-12-14T23:29:23.576Z,57.94
2022-12-14T23:32:09.438Z,58.06
2022-12-14T23:34:55.240Z,58.32
2022-12-14T23:37:41.378Z,57.17
2022-12-14T23:40:27.765Z,57.95
2022-12-14T23:43:13.587Z,58.02
2022-12-14T23:46:00.228Z,57.97
2022-12-14T23:48:46.706Z,58.00
2022-12-14T23:51:32.588Z,57.68
2022-12-14T23:54:18.315Z,58.53
2022-12-14T23:57:04.207Z,59.37
2022-12-14T23:59:50.214Z,59.20
